Time;durP1;ratioP1;P1;durP2;ratioP2;P2;SDS_P1;SDS_P2;PMS_P1;PMS_P2;Temp;Humidity;BMP_temperature;BMP_pressure;BME280_temperature;BME280_humidity;BME280_pressure;Samples;Min_cycle;Max_cycle;Signal;HPM_P1;HPM_P2
2022/07/16 00:03:35;;;;;;;;;2.40;2.40;33.00;99.90;;;;;;5060111;28;8850;-60
2022/07/16 00:06:09;;;;;;;;;2.00;2.00;33.00;99.90;;;;;;5058180;28;8847;-58
2022/07/16 00:08:38;;;;;;;;;1.60;1.60;33.60;99.90;;;;;;5053896;28;8858;-59
2022/07/16 00:11:09;;;;;;;;;2.00;2.00;33.60;99.90;;;;;;5063245;28;9592;-62
2022/07/16 00:13:40;;;;;;;;;1.60;1.60;33.00;99.90;;;;;;5059158;28;8862;-62
2022/07/16 00:16:11;;;;;;;;;2.20;2.20;32.80;99.90;;;;;;5056378;28;8840;-62
2022/07/16 00:21:30;;;;;;;;;3.00;2.00;32.60;99.90;;;;;;5061197;28;8838;-60
2022/07/16 00:24:06;;;;;;;;;2.00;2.00;32.80;99.90;;;;;;5057908;28;8860;-61
2022/07/16 00:26:37;;;;;;;;;2.20;2.00;32.90;99.90;;;;;;5063140;28;8824;-58
2022/07/16 00:29:06;;;;;;;;;3.00;2.00;33.40;99.90;;;;;;5055967;28;8828;-58
2022/07/16 00:31:37;;;;;;;;;2.00;2.00;33.50;99.90;;;;;;5052679;28;8854;-60
2022/07/16 00:34:10;;;;;;;;;1.40;1.40;32.50;99.90;;;;;;5069998;28;8933;-62
2022/07/16 00:36:42;;;;;;;;;1.00;1.00;32.40;99.90;;;;;;5061999;28;9589;-58
2022/07/16 00:39:17;;;;;;;;;3.80;1.20;32.20;99.90;;;;;;5051119;28;8886;-58
2022/07/16 00:41:48;;;;;;;;;0.00;0.00;32.10;99.90;;;;;;5059210;28;8863;-59
2022/07/16 00:44:24;;;;;;;;;1.00;1.00;32.00;99.90;;;;;;5049902;28;8885;-59
2022/07/16 00:46:54;;;;;;;;;1.20;1.20;31.90;99.90;;;;;;5057925;28;8831;-61
2022/07/16 00:49:26;;;;;;;;;1.20;1.20;31.80;99.90;;;;;;5038538;28;9585;-61
2022/07/16 00:51:56;;;;;;;;;1.40;1.40;31.70;99.90;;;;;;5061355;28;8868;-58
2022/07/16 00:54:32;;;;;;;;;1.00;1.00;31.90;99.90;;;;;;5058169;28;8848;-59
2022/07/16 00:57:01;;;;;;;;;1.00;1.00;31.80;99.90;;;;;;5061295;28;8836;-62
2022/07/16 00:59:36;;;;;;;;;1.00;1.00;31.70;99.90;;;;;;5056024;28;8846;-61
2022/07/16 01:02:14;;;;;;;;;1.00;1.00;31.50;99.90;;;;;;5056431;28;8846;-62
2022/07/16 01:04:45;;;;;;;;;2.00;2.00;31.70;99.90;;;;;;5058111;28;8835;-62
2022/07/16 01:07:19;;;;;;;;;1.60;1.60;31.70;99.90;;;;;;5061621;28;8840;-59
2022/07/16 01:09:49;;;;;;;;;1.60;1.60;31.50;99.90;;;;;;5055286;28;8880;-58
2022/07/16 01:12:24;;;;;;;;;1.20;1.20;31.50;99.90;;;;;;5058910;28;8824;-62
2022/07/16 01:14:58;;;;;;;;;2.00;2.00;31.50;99.90;;;;;;5056122;28;8893;-62
2022/07/16 01:17:30;;;;;;;;;1.80;1.80;31.40;99.90;;;;;;5061532;28;8853;-62
2022/07/16 01:20:00;;;;;;;;;1.80;1.80;31.40;99.90;;;;;;5055852;28;8835;-61
2022/07/16 01:22:32;;;;;;;;;1.00;1.00;31.50;99.90;;;;;;5045595;28;8863;-58
2022/07/16 01:25:10;;;;;;;;;1.20;1.20;31.40;99.90;;;;;;5054903;28;8856;-59
2022/07/16 01:27:43;;;;;;;;;2.40;1.40;31.20;99.90;;;;;;5053252;28;9570;-62
2022/07/16 01:30:15;;;;;;;;;2.00;1.40;31.10;99.90;;;;;;5053796;28;8840;-64
2022/07/16 01:32:44;;;;;;;;;1.20;1.20;31.00;99.90;;;;;;5079763;28;8816;-59
2022/07/16 01:35:17;;;;;;;;;1.80;1.80;30.80;99.90;;;;;;5064368;28;8836;-59
2022/07/16 01:37:48;;;;;;;;;1.00;1.00;30.60;99.90;;;;;;5057397;28;9699;-61
2022/07/16 01:40:19;;;;;;;;;1.80;1.80;30.70;99.90;;;;;;5057809;28;8824;-62
2022/07/16 01:42:51;;;;;;;;;1.00;1.00;30.90;99.90;;;;;;5059270;28;8855;-61
2022/07/16 01:45:24;;;;;;;;;1.00;1.00;30.90;99.90;;;;;;5062739;28;8901;-60
2022/07/16 01:47:55;;;;;;;;;4.00;1.40;30.90;99.90;;;;;;5059558;28;8839;-61
2022/07/16 01:50:30;;;;;;;;;1.00;1.00;30.70;99.90;;;;;;5061573;28;8999;-60
2022/07/16 01:53:04;;;;;;;;;1.00;1.00;30.60;99.90;;;;;;5061256;28;8886;-63
2022/07/16 01:55:35;;;;;;;;;1.80;1.80;30.70;99.90;;;;;;5063560;28;8828;-61
2022/07/16 01:58:12;;;;;;;;;1.00;1.00;30.70;99.90;;;;;;5058511;28;8895;-61
2022/07/16 02:00:46;;;;;;;;;1.00;1.00;30.60;99.90;;;;;;5057848;28;8843;-62
2022/07/16 02:03:19;;;;;;;;;0.40;0.40;30.50;99.90;;;;;;5055982;28;8982;-63
2022/07/16 02:05:49;;;;;;;;;1.00;1.00;30.50;99.90;;;;;;5064264;28;8844;-62
2022/07/16 02:08:19;;;;;;;;;1.00;1.00;30.40;99.90;;;;;;5058392;28;8886;-59
2022/07/16 02:10:50;;;;;;;;;1.20;1.00;30.50;99.90;;;;;;5060456;28;8839;-60
2022/07/16 02:13:21;;;;;;;;;0.40;0.40;30.40;99.90;;;;;;5060733;28;8852;-62
2022/07/16 02:15:54;;;;;;;;;0.40;0.40;30.30;99.90;;;;;;5058683;28;8828;-63
2022/07/16 02:18:25;;;;;;;;;1.00;1.00;30.30;99.90;;;;;;5059659;28;8857;-63
2022/07/16 02:20:58;;;;;;;;;1.00;1.00;30.30;99.90;;;;;;5051749;28;8839;-63
2022/07/16 02:23:29;;;;;;;;;1.00;1.00;30.40;99.90;;;;;;5060860;28;8882;-60
2022/07/16 02:25:59;;;;;;;;;1.00;1.00;30.30;99.90;;;;;;5060370;28;9590;-59
2022/07/16 02:28:31;;;;;;;;;1.00;1.00;30.20;99.90;;;;;;5064711;28;8982;-60
2022/07/16 02:31:07;;;;;;;;;1.00;1.00;30.10;99.90;;;;;;5063458;28;8871;-61
2022/07/16 02:33:41;;;;;;;;;0.80;0.80;30.10;99.90;;;;;;5061592;28;8826;-62
2022/07/16 02:36:12;;;;;;;;;1.00;1.00;30.10;99.90;;;;;;5063281;28;8836;-61
2022/07/16 02:38:44;;;;;;;;;0.80;0.80;30.00;99.90;;;;;;5064156;28;8864;-62
2022/07/16 02:41:16;;;;;;;;;1.00;1.00;30.00;99.90;;;;;;5059073;28;8840;-63
2022/07/16 02:43:47;;;;;;;;;1.00;1.00;30.00;99.90;;;;;;5061540;28;8856;-63
2022/07/16 02:46:19;;;;;;;;;0.60;0.60;30.00;99.90;;;;;;5058228;28;8832;-61
2022/07/16 02:48:52;;;;;;;;;0.20;0.20;30.00;99.90;;;;;;5057833;28;9565;-62
2022/07/16 02:51:22;;;;;;;;;1.00;1.00;29.80;99.90;;;;;;5063187;28;8844;-60
2022/07/16 02:53:52;;;;;;;;;0.60;0.60;29.70;99.90;;;;;;5057237;28;8839;-59
2022/07/16 02:56:23;;;;;;;;;0.80;0.80;29.70;99.90;;;;;;5065203;28;8840;-63
2022/07/16 02:58:53;;;;;;;;;0.00;0.00;29.60;99.90;;;;;;5067062;28;8820;-63
2022/07/16 03:01:23;;;;;;;;;1.00;1.00;29.60;99.90;;;;;;5064928;28;8831;-62
2022/07/16 03:03:54;;;;;;;;;0.00;0.00;29.60;99.90;;;;;;5061862;28;8878;-63
2022/07/16 03:06:24;;;;;;;;;2.00;2.00;29.60;99.90;;;;;;5064545;28;8844;-59
2022/07/16 03:08:54;;;;;;;;;1.00;1.00;29.50;99.90;;;;;;5064158;28;8883;-59
2022/07/16 03:11:25;;;;;;;;;1.00;1.00;29.50;99.90;;;;;;5046440;28;8832;-62
2022/07/16 03:13:57;;;;;;;;;1.60;1.40;29.60;99.90;;;;;;5062218;28;8848;-63
2022/07/16 03:16:27;;;;;;;;;3.80;2.60;29.60;99.90;;;;;;5063291;28;8870;-59
2022/07/16 03:19:03;;;;;;;;;1.80;1.80;29.50;99.90;;;;;;5064332;28;8824;-59
2022/07/16 03:21:32;;;;;;;;;1.80;1.80;29.40;99.90;;;;;;5061418;28;8840;-63
2022/07/16 03:24:03;;;;;;;;;1.00;1.00;29.40;99.90;;;;;;5063157;28;8852;-62
2022/07/16 03:26:34;;;;;;;;;1.00;1.00;29.40;99.90;;;;;;5063204;28;9550;-63
2022/07/16 03:29:04;;;;;;;;;3.00;2.00;29.20;99.90;;;;;;5067347;28;8840;-61
2022/07/16 03:31:35;;;;;;;;;2.00;2.00;29.20;99.90;;;;;;5060114;28;8842;-63
2022/07/16 03:34:05;;;;;;;;;1.00;1.00;29.20;99.90;;;;;;5062790;28;8844;-63
2022/07/16 03:36:36;;;;;;;;;2.00;2.00;29.10;99.90;;;;;;5059260;28;8866;-62
2022/07/16 03:39:06;;;;;;;;;2.00;2.00;29.10;99.90;;;;;;5055382;28;8973;-63
2022/07/16 03:41:39;;;;;;;;;2.00;2.00;29.10;99.90;;;;;;5056993;28;8869;-60
2022/07/16 03:44:12;;;;;;;;;1.60;1.60;29.10;99.90;;;;;;5053983;28;8872;-60
2022/07/16 03:46:41;;;;;;;;;1.00;1.00;29.10;99.90;;;;;;5053151;28;8885;-61
2022/07/16 03:49:13;;;;;;;;;1.80;1.80;29.10;99.90;;;;;;5056931;28;8844;-60
2022/07/16 03:51:48;;;;;;;;;2.00;2.00;29.00;99.90;;;;;;5055734;28;8836;-61
2022/07/16 03:54:21;;;;;;;;;2.40;2.00;29.00;99.90;;;;;;5074276;28;8873;-61
2022/07/16 03:56:53;;;;;;;;;2.20;1.00;28.90;99.90;;;;;;5060815;28;8848;-63
2022/07/16 03:59:26;;;;;;;;;2.00;2.00;28.90;99.90;;;;;;5060541;28;8842;-66
2022/07/16 04:01:56;;;;;;;;;1.80;1.80;28.80;99.90;;;;;;5056051;28;8851;-63
2022/07/16 04:04:30;;;;;;;;;2.00;2.00;28.80;99.90;;;;;;5063210;28;8852;-63
2022/07/16 04:06:59;;;;;;;;;1.40;1.40;28.80;99.90;;;;;;5058120;28;8851;-61
2022/07/16 04:09:30;;;;;;;;;1.80;1.80;28.80;99.90;;;;;;5060567;28;8886;-61
2022/07/16 04:12:01;;;;;;;;;2.00;2.00;28.70;99.90;;;;;;5059239;28;8828;-62
2022/07/16 04:14:32;;;;;;;;;1.00;1.00;28.60;99.90;;;;;;5045408;28;8875;-62
2022/07/16 04:17:02;;;;;;;;;1.60;1.60;28.60;99.90;;;;;;5059154;28;8843;-60
2022/07/16 04:19:32;;;;;;;;;2.00;2.00;28.50;99.90;;;;;;5059916;28;8851;-61
2022/07/16 04:22:04;;;;;;;;;1.60;1.60;28.60;99.90;;;;;;5053895;28;9510;-61
2022/07/16 04:24:35;;;;;;;;;4.20;2.00;28.60;99.90;;;;;;5060350;28;8870;-61
2022/07/16 04:27:09;;;;;;;;;2.60;1.80;28.50;99.90;;;;;;5060655;28;8932;-61
2022/07/16 04:29:45;;;;;;;;;3.00;2.00;28.50;99.90;;;;;;5060741;28;8867;-60
2022/07/16 04:32:19;;;;;;;;;2.40;2.00;28.50;99.90;;;;;;5051014;28;8961;-62
2022/07/16 04:34:53;;;;;;;;;2.00;2.00;28.40;99.90;;;;;;5051764;28;8870;-62
2022/07/16 04:37:26;;;;;;;;;1.00;1.00;28.30;99.90;;;;;;5060128;28;8871;-61
2022/07/16 04:39:56;;;;;;;;;2.20;2.20;28.40;99.90;;;;;;5063657;28;8828;-61
2022/07/16 04:42:27;;;;;;;;;3.00;2.00;28.40;99.90;;;;;;5058792;28;8836;-60
2022/07/16 04:44:57;;;;;;;;;2.60;2.60;28.30;99.90;;;;;;5058920;28;8832;-60
2022/07/16 04:47:28;;;;;;;;;3.00;3.00;28.20;99.90;;;;;;5058851;28;8867;-63
2022/07/16 04:49:59;;;;;;;;;2.80;2.80;28.20;99.90;;;;;;5053027;28;8857;-63
2022/07/16 04:52:34;;;;;;;;;3.00;3.00;28.20;99.90;;;;;;5042153;28;8847;-59
2022/07/16 04:55:05;;;;;;;;;2.80;2.60;28.10;99.90;;;;;;5056435;28;9031;-59
2022/07/16 04:57:38;;;;;;;;;2.60;2.60;28.00;99.90;;;;;;5060218;28;8848;-61
2022/07/16 05:00:08;;;;;;;;;4.00;3.00;28.10;99.90;;;;;;5061045;28;8836;-61
2022/07/16 05:02:56;;;;;;;;;1.00;1.00;27.90;99.90;;;;;;5049637;28;8831;-62
2022/07/16 05:05:36;;;;;;;;;2.40;2.20;28.00;99.90;;;;;;5056397;28;9601;-62
2022/07/16 05:08:09;;;;;;;;;2.00;2.00;27.90;99.90;;;;;;5056195;28;8844;-62
2022/07/16 05:10:42;;;;;;;;;2.00;2.00;27.90;99.90;;;;;;5051667;28;8847;-62
2022/07/16 05:13:12;;;;;;;;;2.20;2.20;28.00;99.90;;;;;;5058320;28;9588;-61
2022/07/16 05:15:43;;;;;;;;;2.80;2.80;27.90;99.90;;;;;;5060770;28;8836;-61
2022/07/16 05:18:13;;;;;;;;;2.00;2.00;27.80;99.90;;;;;;5057441;28;8862;-61
2022/07/16 05:20:43;;;;;;;;;1.00;1.00;27.80;99.90;;;;;;5056369;28;8981;-61
2022/07/16 05:23:16;;;;;;;;;2.00;1.00;28.00;99.90;;;;;;5058703;28;8894;-63
2022/07/16 05:25:47;;;;;;;;;1.60;1.60;27.80;99.90;;;;;;5055728;28;9534;-62
2022/07/16 05:28:20;;;;;;;;;2.60;2.60;27.80;99.90;;;;;;5058106;28;9566;-60
2022/07/16 05:30:51;;;;;;;;;1.60;1.60;27.70;99.90;;;;;;5070070;28;9991;-60
2022/07/16 05:33:24;;;;;;;;;2.00;2.00;27.70;99.90;;;;;;5060529;28;8914;-61
2022/07/16 05:35:53;;;;;;;;;2.00;2.00;27.70;99.90;;;;;;5059975;28;8875;-60
2022/07/16 05:38:27;;;;;;;;;2.00;2.00;27.50;99.90;;;;;;5054882;28;8820;-63
2022/07/16 05:41:04;;;;;;;;;2.00;2.00;27.50;99.90;;;;;;5057558;28;8878;-62
2022/07/16 05:43:35;;;;;;;;;1.40;1.40;27.50;99.90;;;;;;5059852;28;9624;-61
2022/07/16 05:46:05;;;;;;;;;1.80;1.80;27.50;99.90;;;;;;5056686;28;8902;-61
2022/07/16 05:48:36;;;;;;;;;2.00;2.00;27.50;99.90;;;;;;5061665;28;8832;-64
2022/07/16 05:51:08;;;;;;;;;2.00;2.00;27.50;99.90;;;;;;5054732;28;8859;-62
2022/07/16 05:53:38;;;;;;;;;2.00;2.00;27.50;99.90;;;;;;5056043;28;8840;-64
2022/07/16 05:56:08;;;;;;;;;1.00;1.00;27.40;99.90;;;;;;5051865;28;8847;-61
2022/07/16 05:58:42;;;;;;;;;1.00;1.00;27.40;99.90;;;;;;5056372;28;8840;-61
2022/07/16 06:01:14;;;;;;;;;1.80;1.80;27.30;99.90;;;;;;5057058;28;9850;-61
2022/07/16 06:03:46;;;;;;;;;1.00;1.00;27.20;99.90;;;;;;5060900;28;8824;-61
2022/07/16 06:06:17;;;;;;;;;3.00;1.40;27.30;99.90;;;;;;5054936;28;9558;-64
2022/07/16 06:08:49;;;;;;;;;2.20;2.20;27.20;99.90;;;;;;5060058;28;8843;-62
2022/07/16 06:11:22;;;;;;;;;1.00;1.00;27.10;99.90;;;;;;5054400;28;9517;-63
2022/07/16 06:13:56;;;;;;;;;1.80;1.80;27.10;99.90;;;;;;5055357;28;8870;-64
2022/07/16 06:16:27;;;;;;;;;3.20;3.20;27.10;99.90;;;;;;5059554;28;8855;-62
2022/07/16 06:18:58;;;;;;;;;1.00;1.00;27.10;99.90;;;;;;5067435;28;8882;-61
2022/07/16 06:21:32;;;;;;;;;2.40;1.40;27.00;99.90;;;;;;5060870;28;8840;-60
2022/07/16 06:24:03;;;;;;;;;1.00;1.00;27.00;99.90;;;;;;5059082;28;8882;-60
2022/07/16 06:26:34;;;;;;;;;2.00;2.00;26.90;99.90;;;;;;5062569;28;9573;-62
2022/07/16 06:29:03;;;;;;;;;2.40;2.40;26.90;99.90;;;;;;5065102;28;8870;-62
2022/07/16 06:31:34;;;;;;;;;3.00;1.80;26.90;99.90;;;;;;5060037;28;8836;-62
2022/07/16 06:34:06;;;;;;;;;2.00;2.00;26.80;99.90;;;;;;5057848;28;8873;-61
2022/07/16 06:36:36;;;;;;;;;3.20;2.00;26.70;99.90;;;;;;5062012;28;8861;-62
2022/07/16 06:39:09;;;;;;;;;1.80;1.80;26.80;99.90;;;;;;5056908;28;8858;-61
2022/07/16 06:41:42;;;;;;;;;2.00;2.00;26.80;99.90;;;;;;5064668;28;8870;-61
2022/07/16 06:44:13;;;;;;;;;2.20;2.20;26.80;99.90;;;;;;5066126;28;8836;-61
2022/07/16 06:46:45;;;;;;;;;2.00;2.00;26.80;99.90;;;;;;5056670;28;8862;-60
2022/07/16 06:49:16;;;;;;;;;2.40;2.40;26.80;99.90;;;;;;5060535;28;8828;-60
2022/07/16 06:51:46;;;;;;;;;1.00;1.00;26.60;99.90;;;;;;5059060;28;8838;-62
2022/07/16 06:54:17;;;;;;;;;1.00;1.00;26.60;99.90;;;;;;5061303;28;8874;-60
2022/07/16 06:56:48;;;;;;;;;3.20;2.00;26.50;99.90;;;;;;5059710;28;8844;-61
2022/07/16 06:59:19;;;;;;;;;1.00;1.00;26.60;99.90;;;;;;5059605;28;8859;-60
2022/07/16 07:01:50;;;;;;;;;1.40;1.40;26.60;99.90;;;;;;5056767;28;8846;-62
2022/07/16 07:04:24;;;;;;;;;1.40;1.40;26.50;99.90;;;;;;5058386;28;8847;-62
2022/07/16 07:06:54;;;;;;;;;2.00;2.00;26.50;99.90;;;;;;5064102;28;8844;-63
2022/07/16 07:09:24;;;;;;;;;1.00;1.00;26.40;99.90;;;;;;5064275;28;8844;-62
2022/07/16 07:11:55;;;;;;;;;1.60;1.60;26.50;99.90;;;;;;5060707;28;8894;-62
2022/07/16 07:14:29;;;;;;;;;1.60;1.60;26.40;99.90;;;;;;5061848;28;8840;-61
2022/07/16 07:17:04;;;;;;;;;2.00;1.80;26.40;99.90;;;;;;5058908;28;8832;-61
2022/07/16 07:19:34;;;;;;;;;2.00;2.00;26.30;99.90;;;;;;5060265;28;8967;-62
2022/07/16 07:22:04;;;;;;;;;3.00;2.00;26.30;99.90;;;;;;5063250;28;8828;-62
2022/07/16 07:24:36;;;;;;;;;1.20;1.20;26.30;99.90;;;;;;5042534;28;9242;-62
2022/07/16 07:27:22;;;;;;;;;1.00;1.00;26.20;99.90;;;;;;5061508;28;8870;-62
2022/07/16 07:29:53;;;;;;;;;2.00;2.00;26.20;99.90;;;;;;5061265;28;8859;-61
2022/07/16 07:32:25;;;;;;;;;1.40;0.60;26.20;99.90;;;;;;5062426;28;8890;-62
2022/07/16 07:34:55;;;;;;;;;2.80;2.80;26.20;99.90;;;;;;5062349;28;8889;-63
2022/07/16 07:37:27;;;;;;;;;1.00;1.00;26.20;99.90;;;;;;5061164;28;8836;-61
2022/07/16 07:39:57;;;;;;;;;2.00;2.00;26.20;99.90;;;;;;5057547;28;8839;-62
2022/07/16 07:42:28;;;;;;;;;1.80;1.60;26.20;99.90;;;;;;5061447;28;8836;-59
2022/07/16 07:44:58;;;;;;;;;1.60;1.60;26.00;99.90;;;;;;5055380;28;8838;-60
2022/07/16 07:47:28;;;;;;;;;1.60;1.60;26.00;99.90;;;;;;5057604;28;8842;-62
2022/07/16 07:50:03;;;;;;;;;1.00;1.00;26.00;99.90;;;;;;5064414;28;8844;-63
2022/07/16 07:52:34;;;;;;;;;2.40;2.40;26.10;99.90;;;;;;5059617;28;8863;-60
2022/07/16 07:55:07;;;;;;;;;2.00;2.00;26.10;99.90;;;;;;5057412;28;8883;-60
2022/07/16 07:57:36;;;;;;;;;3.20;3.20;26.10;99.90;;;;;;5063288;28;8852;-62
2022/07/16 08:00:09;;;;;;;;;4.60;2.80;26.00;99.90;;;;;;5058655;28;8864;-61
2022/07/16 08:02:44;;;;;;;;;2.00;2.00;26.00;99.90;;;;;;5062896;28;8869;-61
2022/07/16 08:05:16;;;;;;;;;1.20;1.20;25.90;99.90;;;;;;5058759;28;8887;-60
2022/07/16 08:07:47;;;;;;;;;2.00;2.00;26.00;99.90;;;;;;5062081;28;8867;-60
2022/07/16 08:10:19;;;;;;;;;0.00;0.00;26.00;99.90;;;;;;5061889;28;8832;-61
2022/07/16 08:12:50;;;;;;;;;2.20;2.20;26.00;99.90;;;;;;5058678;28;8888;-61
2022/07/16 08:15:23;;;;;;;;;2.00;2.00;26.00;99.90;;;;;;5057969;28;8859;-61
2022/07/16 08:17:52;;;;;;;;;2.40;2.20;25.90;99.90;;;;;;5060211;28;8833;-62
2022/07/16 08:20:22;;;;;;;;;4.20;3.00;25.90;99.90;;;;;;5060707;28;9609;-63
2022/07/16 08:22:52;;;;;;;;;6.25;2.75;26.10;99.90;;;;;;5062533;28;8868;-63
2022/07/16 08:28:12;;;;;;;;;3.40;3.40;25.90;99.90;;;;;;5059856;28;8824;-61
2022/07/16 08:30:45;;;;;;;;;2.60;2.60;25.90;99.90;;;;;;5062118;28;8876;-60
2022/07/16 08:33:15;;;;;;;;;4.25;3.00;25.90;99.90;;;;;;5059877;28;8865;-62
2022/07/16 08:35:45;;;;;;;;;5.50;4.00;25.90;99.90;;;;;;5064582;28;9560;-62
2022/07/16 08:38:15;;;;;;;;;3.50;3.50;25.90;99.90;;;;;;5061742;28;8848;-61
2022/07/16 08:40:49;;;;;;;;;2.00;2.00;25.70;99.90;;;;;;5062060;28;8828;-63
2022/07/16 08:43:20;;;;;;;;;3.00;2.00;25.70;99.90;;;;;;5059837;28;8847;-61
2022/07/16 08:45:51;;;;;;;;;3.75;3.75;25.60;99.90;;;;;;5053731;28;8840;-62
2022/07/16 08:48:22;;;;;;;;;5.00;4.00;25.70;99.90;;;;;;5061030;28;9030;-62
2022/07/16 08:50:59;;;;;;;;;3.00;3.00;25.70;99.90;;;;;;5058124;28;8852;-61
2022/07/16 08:53:31;;;;;;;;;2.20;2.00;25.60;99.90;;;;;;5061048;28;8819;-60
2022/07/16 08:56:03;;;;;;;;;2.60;2.60;25.60;99.90;;;;;;5062303;28;8890;-59
2022/07/16 08:58:35;;;;;;;;;3.20;3.20;25.60;99.90;;;;;;5064934;28;8875;-61
2022/07/16 09:01:04;;;;;;;;;3.00;3.00;25.70;99.90;;;;;;5060645;28;8847;-63
2022/07/16 09:03:37;;;;;;;;;3.00;3.00;25.70;99.90;;;;;;5059905;28;9487;-61
2022/07/16 09:06:07;;;;;;;;;2.00;2.00;25.70;99.90;;;;;;5059280;28;8836;-61
2022/07/16 09:08:39;;;;;;;;;1.20;1.20;25.70;99.90;;;;;;5054179;28;8856;-60
2022/07/16 09:11:25;;;;;;;;;3.20;3.20;25.60;99.90;;;;;;5057591;28;8848;-61
2022/07/16 09:14:11;;;;;;;;;3.60;3.00;25.70;99.90;;;;;;5058304;28;9585;-60
2022/07/16 09:16:47;;;;;;;;;3.00;3.00;25.70;99.90;;;;;;5059666;28;9546;-60
2022/07/16 09:19:19;;;;;;;;;2.20;2.20;25.60;99.90;;;;;;5061367;28;8828;-60
2022/07/16 09:21:59;;;;;;;;;4.75;4.00;25.50;99.90;;;;;;5060138;28;8844;-61
2022/07/16 09:24:35;;;;;;;;;4.50;4.25;25.50;99.90;;;;;;5062385;28;8873;-61
2022/07/16 09:27:14;;;;;;;;;0.00;0.00;25.50;99.90;;;;;;5060461;28;8863;-62
2022/07/16 09:29:49;;;;;;;;;4.00;4.00;25.40;99.90;;;;;;5051013;28;8862;-61
2022/07/16 09:32:35;;;;;;;;;4.00;4.00;25.50;99.90;;;;;;5058274;28;8855;-60
2022/07/16 09:35:14;;;;;;;;;3.60;3.60;25.40;99.90;;;;;;5062826;28;8844;-62
2022/07/16 09:37:46;;;;;;;;;4.25;3.00;25.40;99.90;;;;;;5059335;28;8848;-63
2022/07/16 09:40:35;;;;;;;;;4.75;3.00;25.40;99.90;;;;;;5061710;28;8909;-62
2022/07/16 09:43:26;;;;;;;;;4.00;4.00;25.40;99.90;;;;;;5060143;28;8866;-61
2022/07/16 09:46:03;;;;;;;;;3.00;3.00;25.40;99.90;;;;;;5059379;28;8867;-63
2022/07/16 09:48:35;;;;;;;;;3.00;3.00;25.40;99.90;;;;;;5059161;28;8884;-62
2022/07/16 09:51:28;;;;;;;;;2.00;2.00;25.40;99.90;;;;;;5054325;28;8854;-62
2022/07/16 09:53:58;;;;;;;;;4.00;4.00;25.40;99.90;;;;;;5064714;28;8931;-62
2022/07/16 09:56:32;;;;;;;;;3.25;3.25;25.40;99.90;;;;;;5056547;28;8882;-60
2022/07/16 09:59:05;;;;;;;;;4.75;4.75;25.20;99.90;;;;;;5063722;28;8847;-61
2022/07/16 10:01:37;;;;;;;;;2.25;2.25;25.20;99.90;;;;;;5062134;28;8886;-61
2022/07/16 10:04:08;;;;;;;;;1.50;0.25;25.20;99.90;;;;;;5061928;28;8851;-61
2022/07/16 10:06:40;;;;;;;;;3.50;3.50;25.30;99.90;;;;;;5063697;28;8876;-61
2022/07/16 10:09:14;;;;;;;;;2.00;2.00;25.30;99.90;;;;;;5060149;28;8840;-61
2022/07/16 10:11:47;;;;;;;;;1.00;1.00;25.20;99.90;;;;;;5060110;28;8824;-61
2022/07/16 10:14:22;;;;;;;;;4.00;4.00;25.20;99.90;;;;;;5061382;28;9498;-60
2022/07/16 10:16:59;;;;;;;;;6.40;3.40;25.20;99.90;;;;;;5065379;28;8918;-61
2022/07/16 10:19:36;;;;;;;;;3.00;3.00;25.10;99.90;;;;;;5062195;28;8855;-61
2022/07/16 10:22:28;;;;;;;;;2.75;2.75;25.10;99.90;;;;;;5062438;28;8878;-61
2022/07/16 10:25:02;;;;;;;;;3.75;3.75;25.10;99.90;;;;;;5064288;28;9003;-61
2022/07/16 10:27:37;;;;;;;;;2.60;2.60;25.20;99.90;;;;;;5063539;28;8860;-61
2022/07/16 10:30:23;;;;;;;;;2.00;2.00;25.10;99.90;;;;;;5061765;28;8844;-61
2022/07/16 10:33:05;;;;;;;;;3.80;3.80;25.10;99.90;;;;;;5054496;28;8828;-62
2022/07/16 10:36:05;;;;;;;;;3.00;3.00;25.10;99.90;;;;;;5061811;28;8852;-62
2022/07/16 10:38:35;;;;;;;;;2.20;2.20;25.10;99.90;;;;;;5061982;28;8844;-61
2022/07/16 10:41:07;;;;;;;;;3.40;3.40;25.10;99.90;;;;;;5059290;28;8840;-61
2022/07/16 10:43:39;;;;;;;;;3.25;3.25;25.10;99.90;;;;;;5040386;28;8836;-63
2022/07/16 10:46:12;;;;;;;;;4.00;4.00;25.10;99.90;;;;;;5062425;28;8847;-62
2022/07/16 10:48:41;;;;;;;;;2.75;2.75;25.10;99.90;;;;;;5062052;28;8836;-62
2022/07/16 10:51:24;;;;;;;;;1.60;1.60;25.00;99.90;;;;;;5059801;28;8856;-60
2022/07/16 10:54:01;;;;;;;;;4.50;3.75;25.00;99.90;;;;;;5056147;28;8865;-61
2022/07/16 10:56:37;;;;;;;;;3.00;3.00;25.00;99.90;;;;;;5062950;28;8852;-61
2022/07/16 10:59:11;;;;;;;;;3.50;3.00;25.00;99.90;;;;;;5062383;28;8844;-60
2022/07/16 11:01:52;;;;;;;;;3.00;3.00;24.90;99.90;;;;;;5059265;28;8891;-61
2022/07/16 11:04:33;;;;;;;;;6.00;4.25;24.90;99.90;;;;;;5064505;28;8836;-62
2022/07/16 11:07:09;;;;;;;;;0.75;0.75;25.00;99.90;;;;;;5058681;28;8847;-62
2022/07/16 11:09:51;;;;;;;;;4.75;2.00;24.90;99.90;;;;;;5056410;28;8929;-62
2022/07/16 11:12:24;;;;;;;;;3.50;2.25;24.90;99.90;;;;;;5064361;28;8839;-61
2022/07/16 11:14:56;;;;;;;;;2.25;2.00;24.90;99.90;;;;;;5065679;28;8902;-62
2022/07/16 11:17:29;;;;;;;;;4.00;4.00;24.90;99.90;;;;;;5061631;28;8856;-59
2022/07/16 11:20:08;;;;;;;;;2.00;2.00;24.90;99.90;;;;;;5063000;28;8836;-61
2022/07/16 11:22:38;;;;;;;;;4.25;4.25;24.80;99.90;;;;;;5063852;28;8820;-62
2022/07/16 11:25:10;;;;;;;;;3.00;2.50;24.80;99.90;;;;;;5056687;28;9526;-60
2022/07/16 11:27:52;;;;;;;;;2.75;2.75;24.80;99.90;;;;;;5062046;28;9889;-63
2022/07/16 11:30:21;;;;;;;;;3.50;3.50;24.80;99.90;;;;;;5063450;28;8856;-62
2022/07/16 11:32:51;;;;;;;;;4.00;4.00;24.80;99.90;;;;;;5057317;28;8879;-60
2022/07/16 11:35:21;;;;;;;;;1.75;1.75;24.80;99.90;;;;;;5060648;28;8866;-60
2022/07/16 11:37:54;;;;;;;;;3.00;3.00;24.80;99.90;;;;;;5059183;28;8875;-62
2022/07/16 11:40:36;;;;;;;;;4.75;3.00;24.80;99.90;;;;;;5063541;28;8879;-62
2022/07/16 11:43:06;;;;;;;;;3.50;3.50;24.70;99.90;;;;;;5059961;28;8839;-61
2022/07/16 11:45:42;;;;;;;;;3.00;3.00;24.70;99.90;;;;;;5065085;28;8947;-61
2022/07/16 11:48:19;;;;;;;;;3.00;3.00;24.80;99.90;;;;;;5058155;28;8848;-62
2022/07/16 11:50:49;;;;;;;;;2.75;2.75;24.80;99.90;;;;;;5059266;28;8867;-62
2022/07/16 11:53:36;;;;;;;;;3.75;3.75;24.80;99.90;;;;;;5059683;28;8867;-61
2022/07/16 11:56:06;;;;;;;;;3.25;3.25;24.80;99.90;;;;;;5055672;28;9226;-61
2022/07/16 11:58:36;;;;;;;;;3.00;3.00;24.80;99.90;;;;;;5060291;28;8828;-61
2022/07/16 12:01:07;;;;;;;;;4.00;2.50;24.80;99.90;;;;;;5057792;28;8856;-61
2022/07/16 12:03:51;;;;;;;;;3.25;3.00;24.80;99.90;;;;;;5057568;28;8851;-60
2022/07/16 12:06:21;;;;;;;;;2.25;2.25;24.80;99.90;;;;;;5059918;28;8839;-62
2022/07/16 12:08:56;;;;;;;;;4.00;3.00;24.80;99.90;;;;;;5060826;28;9593;-62
2022/07/16 12:11:35;;;;;;;;;3.75;3.75;24.80;99.90;;;;;;5058983;28;9635;-62
2022/07/16 12:14:07;;;;;;;;;3.00;3.00;24.90;99.90;;;;;;5057942;28;8844;-62
2022/07/16 12:16:38;;;;;;;;;2.50;2.50;24.90;99.90;;;;;;5064516;28;8852;-62
2022/07/16 12:19:13;;;;;;;;;3.00;2.75;25.00;99.90;;;;;;5060731;28;8828;-62
2022/07/16 12:21:49;;;;;;;;;3.00;3.00;25.10;99.90;;;;;;5060861;28;8831;-61
2022/07/16 12:24:29;;;;;;;;;3.25;3.25;25.10;99.90;;;;;;5059285;28;9673;-60
2022/07/16 12:26:58;;;;;;;;;2.25;2.25;25.10;99.90;;;;;;5056630;28;8832;-61
2022/07/16 12:29:39;;;;;;;;;2.25;2.00;25.00;99.90;;;;;;5063486;28;9663;-60
2022/07/16 12:32:09;;;;;;;;;2.50;2.50;25.10;99.90;;;;;;5060743;28;8875;-61
2022/07/16 12:34:44;;;;;;;;;3.00;3.00;25.10;99.90;;;;;;5060793;28;8867;-61
2022/07/16 12:37:14;;;;;;;;;1.00;1.00;25.20;99.90;;;;;;5059883;28;8852;-63
2022/07/16 12:39:44;;;;;;;;;2.25;2.25;25.20;99.90;;;;;;5059706;28;8848;-62
2022/07/16 12:42:15;;;;;;;;;2.00;2.00;25.30;99.90;;;;;;5063563;28;8867;-60
2022/07/16 12:44:49;;;;;;;;;6.00;3.00;25.30;99.90;;;;;;5061744;28;9629;-61
2022/07/16 12:47:20;;;;;;;;;2.75;2.50;25.30;99.90;;;;;;5058169;28;8852;-61
2022/07/16 12:49:50;;;;;;;;;4.00;4.00;25.30;99.90;;;;;;5056679;28;8864;-61
2022/07/16 12:52:21;;;;;;;;;3.00;3.00;25.30;99.90;;;;;;5056198;28;9538;-62
2022/07/16 13:00:29;;;;;;;;;2.00;2.00;25.40;99.90;;;;;;5055863;28;8856;-62
2022/07/16 13:03:00;;;;;;;;;4.00;4.00;25.60;99.90;;;;;;5060473;28;9593;-62
2022/07/16 13:05:32;;;;;;;;;5.75;5.75;25.50;99.90;;;;;;5059412;28;8850;-62
2022/07/16 13:08:02;;;;;;;;;3.80;3.00;25.60;99.90;;;;;;5056357;28;8844;-63
2022/07/16 13:10:34;;;;;;;;;3.40;3.40;25.60;99.90;;;;;;5039857;28;8840;-61
2022/07/16 13:13:05;;;;;;;;;4.50;4.25;25.60;99.90;;;;;;5062719;28;8852;-60
2022/07/16 13:15:40;;;;;;;;;6.75;5.50;25.50;99.90;;;;;;5061761;28;9559;-61
2022/07/16 13:18:12;;;;;;;;;5.50;4.50;25.60;99.90;;;;;;5051823;28;8840;-60
2022/07/16 13:20:43;;;;;;;;;3.75;3.75;25.60;99.90;;;;;;5054504;28;8843;-61
2022/07/16 13:23:13;;;;;;;;;5.00;5.00;25.70;99.90;;;;;;5058835;28;8859;-61
2022/07/16 13:25:49;;;;;;;;;5.00;4.00;25.70;99.90;;;;;;5065007;28;8844;-62
2022/07/16 13:28:20;;;;;;;;;12.25;9.00;25.80;99.90;;;;;;5058518;28;8838;-61
2022/07/16 13:30:50;;;;;;;;;6.25;6.25;25.90;99.90;;;;;;5059059;28;8848;-60
2022/07/16 13:33:20;;;;;;;;;7.50;7.00;26.00;99.90;;;;;;5062453;28;8851;-62
2022/07/16 13:35:55;;;;;;;;;5.50;5.00;26.10;99.90;;;;;;5063103;28;8852;-62
2022/07/16 13:38:27;;;;;;;;;8.25;7.75;26.30;99.90;;;;;;5065395;28;8848;-60
2022/07/16 13:41:00;;;;;;;;;6.25;6.25;26.30;99.90;;;;;;5062687;28;8866;-61